createdAt,value
2018-10-11T00:01:46.272Z,95325.07
2018-10-11T00:04:16.548Z,95326.30
2018-10-11T00:06:46.772Z,95326.87
2018-10-11T00:09:17.016Z,95329.14
2018-10-11T00:11:47.265Z,95324.75
2018-10-11T00:14:17.468Z,95329.98
2018-10-11T00:16:47.650Z,95330.72
2018-10-11T00:19:17.842Z,95331.19
2018-10-11T00:21:48.106Z,95332.08
2018-10-11T00:24:19.352Z,95331.66
2018-10-11T00:26:49.564Z,95329.06
2018-10-11T00:29:19.746Z,95324.70
2018-10-11T00:31:50.003Z,95329.29
2018-10-11T00:34:20.815Z,95328.08
2018-10-11T00:36:51.021Z,95331.70
2018-10-11T00:39:21.248Z,95327.70
2018-10-11T00:41:51.497Z,95335.52
2018-10-11T00:44:22.003Z,95332.81
2018-10-11T00:46:52.182Z,95333.98
2018-10-11T00:49:22.430Z,95335.66
2018-10-11T00:51:52.629Z,95324.21
2018-10-11T00:54:22.841Z,95324.21
2018-10-11T00:56:53.558Z,95318.40
2018-10-11T00:59:23.782Z,95317.38
2018-10-11T01:01:53.966Z,95315.72
2018-10-11T01:04:24.214Z,95312.84
2018-10-11T01:06:54.430Z,95305.92
2018-10-11T01:09:24.819Z,95311.53
2018-10-11T01:11:54.930Z,95302.67
2018-10-11T01:14:25.168Z,95305.25
2018-10-11T01:16:55.324Z,95305.05
2018-10-11T01:19:25.542Z,95302.59
2018-10-11T01:21:55.775Z,95297.80
2018-10-11T01:24:26.131Z,95292.13
2018-10-11T01:26:56.377Z,95293.09
2018-10-11T01:29:26.626Z,95288.23
2018-10-11T01:31:56.873Z,95297.53
2018-10-11T01:34:27.117Z,95295.36
2018-10-11T01:36:57.311Z,95282.27
2018-10-11T01:39:27.547Z,95287.88
2018-10-11T01:41:57.781Z,95285.15
2018-10-11T01:44:28.041Z,95283.71
2018-10-11T01:46:58.265Z,95281.13
2018-10-11T01:49:28.495Z,95279.75
2018-10-11T01:51:58.709Z,95273.13
2018-10-11T01:54:28.967Z,95271.55
2018-10-11T01:56:59.191Z,95270.25
2018-10-11T01:59:29.403Z,95271.70
2018-10-11T02:01:59.571Z,95272.91
2018-10-11T02:04:29.830Z,95279.77
2018-10-11T02:07:00.029Z,95280.03
2018-10-11T02:09:36.974Z,95285.70
2018-10-11T02:12:07.289Z,95284.90
2018-10-11T02:14:37.561Z,95281.40
2018-10-11T02:17:07.765Z,95277.84
2018-10-11T02:19:37.976Z,95278.51
2018-10-11T02:22:08.197Z,95276.77
2018-10-11T02:24:38.433Z,95275.37
2018-10-11T02:27:08.623Z,95274.58
2018-10-11T02:29:38.843Z,95273.34
2018-10-11T02:32:09.160Z,95269.81
2018-10-11T02:34:39.403Z,95266.83
2018-10-11T02:37:09.887Z,95262.83
2018-10-11T02:39:40.093Z,95259.56
2018-10-11T02:42:10.537Z,95262.69
2018-10-11T02:44:41.043Z,95273.87
2018-10-11T02:47:11.697Z,95267.82
2018-10-11T02:49:42.437Z,95269.24
2018-10-11T02:52:12.937Z,95266.72
2018-10-11T02:54:43.210Z,95269.38
2018-10-11T02:57:30.397Z,95262.92
2018-10-11T03:00:01.430Z,95254.64
2018-10-11T03:02:31.728Z,95251.14
2018-10-11T03:05:02.334Z,95247.34
2018-10-11T03:07:32.610Z,95251.14
2018-10-11T03:10:02.864Z,95249.38
2018-10-11T03:12:33.062Z,95242.66
2018-10-11T03:15:03.273Z,95246.70
2018-10-11T03:17:33.468Z,95249.41
2018-10-11T03:20:03.770Z,95251.48
2018-10-11T03:22:33.930Z,95251.90
2018-10-11T03:25:04.214Z,95248.72
2018-10-11T03:27:34.334Z,95251.68
2018-10-11T03:30:04.560Z,95251.63
2018-10-11T03:32:34.708Z,95251.77
2018-10-11T03:35:05.017Z,95249.22
2018-10-11T03:37:35.224Z,95245.72
2018-10-11T03:40:05.702Z,95249.55
2018-10-11T03:42:35.884Z,95254.17
2018-10-11T03:45:06.128Z,95253.78
2018-10-11T03:47:36.321Z,95250.19
2018-10-11T03:50:06.575Z,95249.14
2018-10-11T03:52:43.508Z,95249.08
2018-10-11T03:55:13.764Z,95256.27
2018-10-11T03:57:43.940Z,95252.47
2018-10-11T04:00:14.152Z,95251.94
2018-10-11T04:02:44.370Z,95246.12
2018-10-11T04:05:15.170Z,95258.86
2018-10-11T04:07:45.385Z,95256.80
2018-10-11T04:10:15.606Z,95262.30
2018-10-11T04:12:45.853Z,95250.84
2018-10-11T04:15:16.055Z,95258.33
2018-10-11T04:17:46.255Z,95254.17
2018-10-11T04:20:16.472Z,95259.75
2018-10-11T04:22:46.644Z,95261.78
2018-10-11T04:25:16.890Z,95266.35
2018-10-11T04:27:47.993Z,95263.97
2018-10-11T04:30:18.836Z,95267.28
2018-10-11T04:32:49.648Z,95267.32
2018-10-11T04:35:19.892Z,95262.92
2018-10-11T04:37:50.353Z,95256.91
2018-10-11T04:40:20.565Z,95255.47
2018-10-11T04:42:50.906Z,95252.67
2018-10-11T04:45:21.062Z,95254.00
2018-10-11T04:47:52.370Z,95251.00
2018-10-11T04:50:22.578Z,95253.50
2018-10-11T04:52:52.854Z,95255.98
2018-10-11T04:55:23.147Z,95254.51
2018-10-11T04:57:53.354Z,95258.78
2018-10-11T05:00:23.592Z,95261.02
2018-10-11T05:02:53.934Z,95260.58
2018-10-11T05:05:24.270Z,95260.71
2018-10-11T05:07:54.451Z,95269.72
2018-10-11T05:10:24.755Z,95272.41
2018-10-11T05:12:55.337Z,95273.72
2018-10-11T05:15:26.362Z,95272.65
2018-10-11T05:17:56.912Z,95273.75
2018-10-11T05:20:27.222Z,95275.94
2018-10-11T05:22:57.447Z,95283.67
2018-10-11T05:25:27.689Z,95292.39
2018-10-11T05:27:57.883Z,95288.53
2018-10-11T05:30:28.158Z,95288.96
2018-10-11T05:32:58.954Z,95283.47
2018-10-11T05:35:29.171Z,95284.47
2018-10-11T05:37:59.462Z,95287.56
2018-10-11T05:40:29.782Z,95290.06
2018-10-11T05:43:01.110Z,95295.05
2018-10-11T05:45:31.512Z,95296.25
2018-10-11T05:48:01.752Z,95289.83
2018-10-11T05:50:32.022Z,95287.42
2018-10-11T05:53:02.592Z,95287.70
2018-10-11T05:55:32.990Z,95292.63
2018-10-11T05:58:03.288Z,95300.48
2018-10-11T06:00:33.543Z,95288.26
2018-10-11T06:03:04.617Z,95290.16
2018-10-11T06:05:35.354Z,95289.13
2018-10-11T06:08:05.830Z,95292.13
2018-10-11T06:10:39.166Z,95295.05
2018-10-11T06:13:10.412Z,95292.68
2018-10-11T06:15:41.488Z,95292.34
2018-10-11T06:18:12.914Z,95290.47
2018-10-11T06:20:43.425Z,95292.41
2018-10-11T06:23:14.116Z,95298.91
2018-10-11T06:25:44.839Z,95292.77
2018-10-11T06:28:16.788Z,95296.41
2018-10-11T06:30:48.002Z,95302.35
2018-10-11T06:33:19.093Z,95299.45
2018-10-11T06:35:49.450Z,95300.61
2018-10-11T06:38:19.734Z,95302.36
2018-10-11T06:40:50.011Z,95303.20
2018-10-11T06:43:20.587Z,95296.44
2018-10-11T06:45:50.930Z,95300.55
2018-10-11T06:48:21.207Z,95300.19
2018-10-11T06:50:51.473Z,95294.81
2018-10-11T06:53:21.951Z,95287.32
2018-10-11T06:55:53.932Z,95296.13
2018-10-11T06:58:24.245Z,95291.71
2018-10-11T07:00:54.584Z,95289.93
2018-10-11T07:03:24.822Z,95294.61
2018-10-11T07:05:55.055Z,95294.83
2018-10-11T07:08:25.352Z,95293.12
2018-10-11T07:10:55.588Z,95298.55
2018-10-11T07:13:26.037Z,95297.19
2018-10-11T07:15:56.325Z,95293.80
2018-10-11T07:18:26.595Z,95290.84
2018-10-11T07:20:56.921Z,95298.37
2018-10-11T07:23:27.131Z,95304.94
2018-10-11T07:25:57.442Z,95301.17
2018-10-11T07:28:27.611Z,95308.35
2018-10-11T07:30:57.832Z,95302.80
2018-10-11T07:33:28.113Z,95300.51
2018-10-11T07:35:58.573Z,95307.00
2018-10-11T07:38:28.815Z,95309.89
2018-10-11T07:40:59.137Z,95307.05
2018-10-11T07:43:29.319Z,95312.05
2018-10-11T07:45:59.563Z,95311.45
2018-10-11T07:48:29.883Z,95312.71
2018-10-11T07:51:00.146Z,95311.20
2018-10-11T07:53:30.527Z,95314.70
2018-10-11T07:56:00.859Z,95319.13
2018-10-11T07:58:31.113Z,95307.59
2018-10-11T08:01:01.446Z,95311.11
2018-10-11T08:03:31.764Z,95311.52
2018-10-11T08:06:02.330Z,95297.32
2018-10-11T08:08:32.641Z,95307.27
2018-10-11T08:11:03.341Z,95308.03
2018-10-11T08:13:33.843Z,95302.38
2018-10-11T08:16:04.398Z,95302.78
2018-10-11T08:18:34.755Z,95309.64
2018-10-11T08:21:05.014Z,95311.95
2018-10-11T08:23:35.388Z,95305.68
2018-10-11T08:26:06.197Z,95309.39
2018-10-11T08:28:36.074Z,95310.84
2018-10-11T08:31:07.602Z,95306.43
2018-10-11T08:33:37.926Z,95304.72
2018-10-11T08:36:08.728Z,95307.93
2018-10-11T08:38:39.697Z,95298.85
2018-10-11T08:41:10.659Z,95297.55
2018-10-11T08:43:41.065Z,95299.67
2018-10-11T08:46:11.934Z,95296.66
2018-10-11T08:48:42.504Z,95296.17
2018-10-11T08:51:13.995Z,95296.17
2018-10-11T08:53:44.411Z,95303.52
2018-10-11T08:56:15.140Z,95304.31
2018-10-11T08:58:46.448Z,95295.27
2018-10-11T09:01:17.464Z,95295.01
2018-10-11T09:03:48.235Z,95294.58
2018-10-11T09:06:18.852Z,95298.33
2018-10-11T09:08:49.492Z,95298.81
2018-10-11T09:11:20.623Z,95297.60
2018-10-11T09:13:50.986Z,95300.52
2018-10-11T09:16:21.457Z,95300.32
2018-10-11T09:18:51.844Z,95304.53
2018-10-11T09:21:22.096Z,95297.84
2018-10-11T09:23:52.407Z,95296.77
2018-10-11T09:26:22.788Z,95294.09
2018-10-11T09:28:53.198Z,95295.65
2018-10-11T09:31:23.481Z,95299.08
2018-10-11T09:33:53.738Z,95290.60
2018-10-11T09:36:24.151Z,95300.59
2018-10-11T09:38:54.298Z,95296.20
2018-10-11T09:41:24.900Z,95294.05
2018-10-11T09:43:55.136Z,95295.37
2018-10-11T09:46:32.651Z,95291.25
2018-10-11T09:49:03.398Z,95289.67
2018-10-11T09:51:33.780Z,95283.89
2018-10-11T09:54:04.153Z,95289.27
2018-10-11T09:57:39.124Z,95279.33
2018-10-11T10:01:13.942Z,95291.34
2018-10-11T10:03:45.626Z,95284.39
2018-10-11T10:06:16.502Z,95289.46
2018-10-11T10:08:47.232Z,95289.05
2018-10-11T10:11:18.439Z,95287.31
2018-10-11T10:13:49.668Z,95279.66
2018-10-11T10:16:22.860Z,95278.33
2018-10-11T10:18:53.174Z,95288.30
2018-10-11T10:21:23.443Z,95288.75
2018-10-11T10:23:53.628Z,95289.99
2018-10-11T10:26:23.845Z,95289.10
2018-10-11T10:28:54.145Z,95286.44
2018-10-11T10:31:24.326Z,95287.30
2018-10-11T10:33:54.752Z,95280.66
2018-10-11T10:36:24.962Z,95286.11
2018-10-11T10:38:55.187Z,95284.48
2018-10-11T10:41:25.828Z,95284.58
2018-10-11T10:43:56.288Z,95281.42
2018-10-11T10:46:26.676Z,95281.42
2018-10-11T10:48:57.047Z,95278.88
2018-10-11T10:51:27.345Z,95287.20
2018-10-11T10:53:57.651Z,95284.79
2018-10-11T10:56:27.910Z,95280.14
2018-10-11T10:58:58.204Z,95276.24
2018-10-11T11:01:28.487Z,95278.00
2018-10-11T11:03:59.554Z,95267.99
2018-10-11T11:06:29.880Z,95271.47
2018-10-11T11:09:00.246Z,95264.98
2018-10-11T11:11:30.512Z,95266.72
2018-10-11T11:14:00.758Z,95263.44
2018-10-11T11:16:31.084Z,95266.59
2018-10-11T11:19:01.503Z,95266.55
2018-10-11T11:21:31.633Z,95257.04
2018-10-11T11:24:02.064Z,95261.50
2018-10-11T11:26:32.753Z,95258.58
2018-10-11T11:29:04.122Z,95258.73
2018-10-11T11:31:34.379Z,95261.28
2018-10-11T11:34:04.994Z,95260.47
2018-10-11T11:36:35.662Z,95259.23
2018-10-11T11:39:09.498Z,95261.02
2018-10-11T11:41:40.483Z,95257.53
2018-10-11T11:44:11.459Z,95259.60
2018-10-11T11:46:42.051Z,95254.67
2018-10-11T11:49:12.376Z,95247.88
2018-10-11T11:51:42.785Z,95249.03
2018-10-11T11:54:20.187Z,95251.47
2018-10-11T11:56:51.247Z,95251.58
2018-10-11T11:59:22.581Z,95252.46
2018-10-11T12:01:52.802Z,95244.20
2018-10-11T12:04:23.121Z,95246.05
2018-10-11T12:06:53.575Z,95240.66
2018-10-11T12:09:23.959Z,95240.89
2018-10-11T12:11:54.317Z,95248.05
2018-10-11T12:14:24.697Z,95243.93
2018-10-11T12:16:54.969Z,95248.20
2018-10-11T12:19:25.273Z,95246.13
2018-10-11T12:21:55.483Z,95251.58
2018-10-11T12:24:25.821Z,95247.81
2018-10-11T12:26:56.180Z,95247.27
2018-10-11T12:29:26.421Z,95241.95
2018-10-11T12:31:56.681Z,95249.38
2018-10-11T12:34:27.104Z,95249.97
2018-10-11T12:36:57.325Z,95251.33
2018-10-11T12:39:27.617Z,95245.70
2018-10-11T12:41:57.912Z,95240.81
2018-10-11T12:44:28.563Z,95232.86
2018-10-11T12:46:58.864Z,95236.94
2018-10-11T12:49:29.205Z,95237.81
2018-10-11T12:51:59.455Z,95239.31
2018-10-11T12:54:29.700Z,95242.16
2018-10-11T12:57:00.042Z,95236.64
2018-10-11T12:59:30.295Z,95237.47
2018-10-11T13:02:00.517Z,95231.97
2018-10-11T13:04:30.780Z,95235.33
2018-10-11T13:07:00.919Z,95241.12
2018-10-11T13:09:32.849Z,95241.28
2018-10-11T13:12:03.442Z,95241.40
2018-10-11T13:14:33.677Z,95243.84
2018-10-11T13:17:03.904Z,95242.00
2018-10-11T13:19:34.178Z,95241.11
2018-10-11T13:22:04.531Z,95240.38
2018-10-11T13:24:39.766Z,95238.02
2018-10-11T13:27:05.155Z,95233.06
2018-10-11T13:29:35.477Z,95230.22
2018-10-11T13:32:05.841Z,95225.45
2018-10-11T13:34:36.157Z,95231.32
2018-10-11T13:37:06.459Z,95238.03
2018-10-11T13:39:36.824Z,95236.23
2018-10-11T13:42:07.055Z,95242.86
2018-10-11T13:44:37.414Z,95243.08
2018-10-11T13:47:07.818Z,95242.77
2018-10-11T13:49:38.375Z,95237.53
2018-10-11T13:52:13.191Z,95247.95
2018-10-11T13:54:39.451Z,95241.17
2018-10-11T13:57:09.809Z,95243.33
2018-10-11T13:59:40.714Z,95245.70
2018-10-11T14:02:11.404Z,95243.16
2018-10-11T14:04:42.103Z,95242.14
2018-10-11T14:07:12.561Z,95245.92
2018-10-11T14:09:43.405Z,95241.12
2018-10-11T14:12:13.857Z,95246.00
2018-10-11T14:14:44.232Z,95243.27
2018-10-11T14:17:14.727Z,95247.48
2018-10-11T14:19:45.156Z,95247.48
2018-10-11T14:22:15.868Z,95253.53
2018-10-11T14:24:46.476Z,95257.61
2018-10-11T14:27:17.300Z,95255.84
2018-10-11T14:29:48.320Z,95253.36
2018-10-11T14:32:19.353Z,95245.61
2018-10-11T14:34:50.699Z,95245.66
2018-10-11T14:37:22.728Z,95241.91
2018-10-11T14:39:53.057Z,95244.00
2018-10-11T14:42:23.359Z,95244.45
2018-10-11T14:44:53.699Z,95243.24
2018-10-11T14:47:24.271Z,95243.22
2018-10-11T14:49:54.752Z,95247.05
2018-10-11T14:52:25.010Z,95245.87
2018-10-11T14:54:55.301Z,95246.89
2018-10-11T14:57:25.837Z,95241.00
2018-10-11T14:59:56.017Z,95240.08
2018-10-11T15:02:26.231Z,95247.75
2018-10-11T15:04:56.501Z,95246.66
2018-10-11T15:07:26.804Z,95246.92
2018-10-11T15:09:57.005Z,95249.94
2018-10-11T15:12:27.233Z,95255.25
2018-10-11T15:14:57.489Z,95256.41
2018-10-11T15:17:27.845Z,95250.88
2018-10-11T15:19:58.091Z,95254.86
2018-10-11T15:22:34.815Z,95253.45
2018-10-11T15:25:05.885Z,95257.93
2018-10-11T15:27:36.201Z,95260.95
2018-10-11T15:30:07.436Z,95257.04
2018-10-11T15:32:37.831Z,95258.88
2018-10-11T15:35:08.456Z,95267.05
2018-10-11T15:37:38.902Z,95264.55
2018-10-11T15:40:09.588Z,95269.72
2018-10-11T15:42:39.993Z,95272.77
2018-10-11T15:45:10.574Z,95267.78
2018-10-11T15:47:40.849Z,95267.63
2018-10-11T15:50:11.580Z,95275.47
2018-10-11T15:52:42.057Z,95276.48
2018-10-11T15:55:12.611Z,95275.85
2018-10-11T15:57:43.194Z,95274.95
2018-10-11T16:00:13.710Z,95283.55
2018-10-11T16:02:44.148Z,95285.45
2018-10-11T16:05:14.777Z,95279.75
2018-10-11T16:07:45.247Z,95285.88
2018-10-11T16:10:15.657Z,95294.91
2018-10-11T16:12:45.887Z,95293.72
2018-10-11T16:15:16.204Z,95295.73
2018-10-11T16:17:46.449Z,95293.76
2018-10-11T16:20:16.628Z,95293.19
2018-10-11T16:22:46.870Z,95293.39
2018-10-11T16:25:17.685Z,95301.84
2018-10-11T16:27:48.059Z,95302.66
2018-10-11T16:30:18.204Z,95307.88
2018-10-11T16:32:48.434Z,95305.88
2018-10-11T16:35:18.727Z,95304.86
2018-10-11T16:37:48.919Z,95311.09
2018-10-11T16:40:19.209Z,95316.25
2018-10-11T16:42:49.548Z,95319.73
2018-10-11T16:45:19.869Z,95320.92
2018-10-11T16:47:50.122Z,95320.13
2018-10-11T16:50:20.482Z,95328.49
2018-10-11T16:52:50.753Z,95330.75
2018-10-11T16:55:21.031Z,95335.11
2018-10-11T16:57:51.243Z,95344.97
2018-10-11T17:00:21.506Z,95351.75
2018-10-11T17:02:51.757Z,95348.97
2018-10-11T17:05:22.043Z,95349.90
2018-10-11T17:07:52.292Z,95355.77
2018-10-11T17:10:22.548Z,95360.27
2018-10-11T17:12:52.740Z,95363.05
2018-10-11T17:15:23.010Z,95367.20
2018-10-11T17:17:53.216Z,95366.52
2018-10-11T17:20:23.438Z,95364.89
2018-10-11T17:22:53.683Z,95365.25
2018-10-11T17:25:23.900Z,95362.09
2018-10-11T17:27:54.138Z,95367.52
2018-10-11T17:30:25.416Z,95367.10
2018-10-11T17:32:56.239Z,95371.39
2018-10-11T17:35:26.776Z,95369.69
2018-10-11T17:37:56.955Z,95373.06
2018-10-11T17:40:30.097Z,95373.01
2018-10-11T17:43:00.313Z,95380.16
2018-10-11T17:45:30.597Z,95383.84
2018-10-11T17:48:00.800Z,95382.23
2018-10-11T17:50:31.094Z,95381.66
2018-10-11T17:53:01.703Z,95383.55
2018-10-11T17:55:35.135Z,95384.39
2018-10-11T17:58:05.380Z,95383.52
2018-10-11T18:00:35.628Z,95390.08
2018-10-11T18:03:05.943Z,95384.28
2018-10-11T18:05:36.156Z,95387.88
2018-10-11T18:08:06.374Z,95390.50
2018-10-11T18:10:37.790Z,95391.36
2018-10-11T18:13:08.101Z,95392.87
2018-10-11T18:15:39.441Z,95398.41
2018-10-11T18:18:10.264Z,95402.00
2018-10-11T18:20:40.554Z,95406.91
2018-10-11T18:23:10.829Z,95414.08
2018-10-11T18:25:41.029Z,95413.98
2018-10-11T18:28:11.271Z,95411.69
2018-10-11T18:30:41.485Z,95414.93
2018-10-11T18:33:11.702Z,95416.61
2018-10-11T18:35:42.075Z,95416.46
2018-10-11T18:38:12.390Z,95419.43
2018-10-11T18:40:42.676Z,95418.17
2018-10-11T18:43:12.907Z,95418.55
2018-10-11T18:45:43.152Z,95415.97
2018-10-11T18:48:13.563Z,95416.05
2018-10-11T18:50:43.821Z,95416.70
2018-10-11T18:53:14.037Z,95421.09
2018-10-11T18:55:44.365Z,95412.36
2018-10-11T18:58:14.597Z,95415.30
2018-10-11T19:00:45.027Z,95415.77
2018-10-11T19:03:15.444Z,95413.19
2018-10-11T19:05:45.964Z,95425.06
2018-10-11T19:08:16.165Z,95415.20
2018-10-11T19:10:46.423Z,95416.67
2018-10-11T19:13:16.816Z,95415.42
2018-10-11T19:15:47.063Z,95418.13
2018-10-11T19:18:17.291Z,95420.08
2018-10-11T19:20:47.576Z,95420.45
2018-10-11T19:23:17.721Z,95422.61
2018-10-11T19:25:49.222Z,95425.34
2018-10-11T19:28:19.802Z,95424.98
2018-10-11T19:30:50.106Z,95427.99
2018-10-11T19:33:20.301Z,95426.26
2018-10-11T19:35:51.010Z,95426.66
2018-10-11T19:38:21.212Z,95432.20
2018-10-11T19:40:51.486Z,95429.66
2018-10-11T19:43:21.729Z,95429.05
2018-10-11T19:45:52.238Z,95424.11
2018-10-11T19:48:22.648Z,95426.42
2018-10-11T19:50:52.820Z,95426.42
2018-10-11T19:53:23.052Z,95426.08
2018-10-11T19:55:53.285Z,95430.59
2018-10-11T19:58:23.637Z,95431.43
2018-10-11T20:00:53.904Z,95438.14
2018-10-11T20:03:24.077Z,95432.08
2018-10-11T20:05:54.318Z,95433.91
2018-10-11T20:08:24.532Z,95431.09
2018-10-11T20:10:54.763Z,95437.05
2018-10-11T20:13:24.976Z,95434.85
2018-10-11T20:15:55.287Z,95438.28
2018-10-11T20:18:25.508Z,95434.16
2018-10-11T20:20:55.793Z,95441.70
2018-10-11T20:23:26.033Z,95447.57
2018-10-11T20:25:56.352Z,95452.20
2018-10-11T20:28:26.511Z,95456.95
2018-10-11T20:30:56.769Z,95464.70
2018-10-11T20:33:27.025Z,95464.88
2018-10-11T20:35:57.288Z,95465.87
2018-10-11T20:38:28.414Z,95468.05
2018-10-11T20:40:58.659Z,95470.69
2018-10-11T20:43:28.885Z,95466.13
2018-10-11T20:45:59.098Z,95474.55
2018-10-11T20:48:29.407Z,95478.67
2018-10-11T20:50:59.723Z,95483.61
2018-10-11T20:53:29.892Z,95482.09
2018-10-11T20:56:00.172Z,95481.30
2018-10-11T20:58:30.458Z,95485.69
2018-10-11T21:01:00.708Z,95487.34
2018-10-11T21:03:30.952Z,95490.23
2018-10-11T21:06:01.245Z,95489.27
2018-10-11T21:08:31.466Z,95491.01
2018-10-11T21:11:01.950Z,95491.52
2018-10-11T21:13:32.147Z,95484.27
2018-10-11T21:16:02.401Z,95482.16
2018-10-11T21:18:32.572Z,95479.02
2018-10-11T21:21:02.871Z,95487.06
2018-10-11T21:23:33.038Z,95484.44
2018-10-11T21:26:03.317Z,95483.30
2018-10-11T21:28:33.500Z,95488.04
2018-10-11T21:31:03.744Z,95489.37
2018-10-11T21:33:34.526Z,95487.44
2018-10-11T21:36:04.810Z,95493.84
2018-10-11T21:38:35.286Z,95487.90
2018-10-11T21:41:05.597Z,95496.95
2018-10-11T21:43:35.896Z,95498.13
2018-10-11T21:46:06.189Z,95500.92
2018-10-11T21:48:36.342Z,95498.44
2018-10-11T21:51:06.910Z,95504.86
2018-10-11T21:53:37.118Z,95508.57
2018-10-11T21:56:07.379Z,95514.97
2018-10-11T21:58:37.609Z,95516.59
2018-10-11T22:01:12.980Z,95512.55
2018-10-11T22:03:43.227Z,95520.59
2018-10-11T22:06:13.493Z,95522.10
2018-10-11T22:08:44.065Z,95525.99
2018-10-11T22:11:14.586Z,95520.59
2018-10-11T22:13:44.830Z,95530.33
2018-10-11T22:16:15.066Z,95529.30
2018-10-11T22:18:45.302Z,95525.22
2018-10-11T22:21:15.569Z,95530.95
2018-10-11T22:23:45.789Z,95535.73
2018-10-11T22:26:16.030Z,95532.95
2018-10-11T22:28:46.219Z,95531.17
2018-10-11T22:31:16.450Z,95528.67
2018-10-11T22:33:46.663Z,95527.02
2018-10-11T22:36:16.903Z,95533.27
2018-10-11T22:38:47.081Z,95537.38
2018-10-11T22:41:17.378Z,95538.86
2018-10-11T22:43:47.655Z,95543.16
2018-10-11T22:46:17.973Z,95548.73
2018-10-11T22:48:48.196Z,95551.05
2018-10-11T22:51:18.492Z,95555.64
2018-10-11T22:53:48.840Z,95550.91
2018-10-11T22:56:21.674Z,95561.08
2018-10-11T22:58:53.014Z,95551.41
2018-10-11T23:01:23.410Z,95562.42
2018-10-11T23:03:53.616Z,95559.63
2018-10-11T23:06:23.910Z,95566.02
2018-10-11T23:08:54.108Z,95574.55
2018-10-11T23:11:24.880Z,95578.01
2018-10-11T23:13:55.084Z,95584.59
2018-10-11T23:16:25.316Z,95577.83
2018-10-11T23:18:55.494Z,95585.72
2018-10-11T23:21:27.251Z,95584.27
2018-10-11T23:23:57.518Z,95587.87
2018-10-11T23:26:27.746Z,95587.05
2018-10-11T23:28:57.950Z,95580.83
2018-10-11T23:31:28.138Z,95586.08
2018-10-11T23:33:58.316Z,95589.67
2018-10-11T23:36:28.528Z,95595.74
2018-10-11T23:38:58.778Z,95597.22
2018-10-11T23:41:29.047Z,95606.40
2018-10-11T23:43:59.210Z,95601.97
2018-10-11T23:46:29.468Z,95614.39
2018-10-11T23:48:59.676Z,95610.77
2018-10-11T23:51:29.898Z,95612.22
2018-10-11T23:54:00.090Z,95618.45
2018-10-11T23:56:30.316Z,95625.16
2018-10-11T23:59:00.496Z,95625.39
